OMS107 OOMS-OOSA
Flight info
| Callsign | OMS107 |
|---|---|
| Flight time | 1h 14m |
| Altitude | 26000 |
| Route | DCT MCT B400 ASTUN B535 SLL DCT |
| Aircraft | A20N/M-SDE2E3FGHIRWXY/LB1 |
Departure
| Time | 2026-05-05 15:03 |
|---|---|
| Airport | Muscat International Airport (OOMS) |
Arrival
| Time | 2026-05-05 16:17 |
|---|---|
| Airport | Salalah International Airport (OOSA) |
| Time | Latitude | Longitude | Altitude | Speed | Heading |
|---|---|---|---|---|---|
| 2026-05-05 14:37 | 23.60169 | 58.27774 | 33 ft | 0 kts | 220° |
| 2026-05-05 14:53 | 23.60170 | 58.27774 | 34 ft | 2 kts | 220° |
| 2026-05-05 14:53 | 23.60183 | 58.27786 | 34 ft | 2 kts | 221° |
| 2026-05-05 14:53 | 23.60195 | 58.27797 | 32 ft | 2 kts | 220° |
| 2026-05-05 14:53 | 23.60208 | 58.27809 | 32 ft | 2 kts | 221° |
| 2026-05-05 14:54 | 23.60220 | 58.27821 | 32 ft | 2 kts | 221° |
| 2026-05-05 14:54 | 23.60233 | 58.27833 | 33 ft | 2 kts | 223° |
| 2026-05-05 14:54 | 23.60244 | 58.27846 | 32 ft | 2 kts | 227° |
| 2026-05-05 14:54 | 23.60255 | 58.27860 | 32 ft | 2 kts | 245° |
| 2026-05-05 14:55 | 23.60256 | 58.27876 | 34 ft | 1 kts | 316° |
| 2026-05-05 14:55 | 23.60254 | 58.27878 | 34 ft | 0 kts | 316° |
| 2026-05-05 14:56 | 23.60267 | 58.27862 | 32 ft | 7 kts | 310° |
| 2026-05-05 14:56 | 23.60311 | 58.27805 | 34 ft | 12 kts | 310° |
| 2026-05-05 14:57 | 23.60373 | 58.27723 | 33 ft | 16 kts | 309° |
| 2026-05-05 14:57 | 23.60448 | 58.27626 | 33 ft | 13 kts | 310° |
| 2026-05-05 14:57 | 23.60470 | 58.27534 | 34 ft | 15 kts | 265° |
| 2026-05-05 14:57 | 23.60460 | 58.27411 | 34 ft | 18 kts | 265° |
| 2026-05-05 14:58 | 23.60449 | 58.27267 | 34 ft | 21 kts | 265° |
| 2026-05-05 14:58 | 23.60436 | 58.27097 | 34 ft | 24 kts | 265° |
| 2026-05-05 14:58 | 23.60422 | 58.26913 | 34 ft | 26 kts | 264° |
| 2026-05-05 14:58 | 23.60407 | 58.26739 | 34 ft | 23 kts | 264° |
| 2026-05-05 14:59 | 23.60393 | 58.26565 | 34 ft | 22 kts | 265° |
| 2026-05-05 14:59 | 23.60379 | 58.26395 | 34 ft | 24 kts | 264° |
| 2026-05-05 14:59 | 23.60364 | 58.26206 | 33 ft | 26 kts | 266° |
| 2026-05-05 14:59 | 23.60348 | 58.26010 | 33 ft | 25 kts | 265° |
| 2026-05-05 15:00 | 23.60337 | 58.25871 | 33 ft | 13 kts | 268° |
| 2026-05-05 15:00 | 23.60372 | 58.25829 | 33 ft | 12 kts | 345° |
| 2026-05-05 15:00 | 23.60443 | 58.25821 | 33 ft | 2 kts | 354° |
| 2026-05-05 15:00 | 23.60455 | 58.25819 | 33 ft | 1 kts | 355° |
| 2026-05-05 15:01 | 23.60465 | 58.25818 | 33 ft | 4 kts | 354° |
| 2026-05-05 15:01 | 23.60522 | 58.25813 | 32 ft | 12 kts | 355° |
| 2026-05-05 15:01 | 23.60596 | 58.25858 | 31 ft | 10 kts | 68° |
| 2026-05-05 15:01 | 23.60600 | 58.25879 | 31 ft | 10 kts | 83° |
| 2026-05-05 15:02 | 23.60628 | 58.26209 | 32 ft | 77 kts | 84° |
| 2026-05-05 15:02 | 23.60689 | 58.26992 | 36 ft | 128 kts | 85° |
| 2026-05-05 15:02 | 23.60771 | 58.28094 | 33 ft | 166 kts | 84° |
| 2026-05-05 15:02 | 23.60866 | 58.29390 | 451 ft | 172 kts | 82° |
| 2026-05-05 15:03 | 23.60992 | 58.30713 | 978 ft | 177 kts | 81° |
| 2026-05-05 15:03 | 23.61168 | 58.32049 | 1523 ft | 180 kts | 84° |
| 2026-05-05 15:03 | 23.61287 | 58.33445 | 1939 ft | 193 kts | 87° |
| 2026-05-05 15:03 | 23.61340 | 58.34979 | 2228 ft | 213 kts | 97° |
| 2026-05-05 15:04 | 23.60873 | 58.36591 | 2573 ft | 235 kts | 120° |
| 2026-05-05 15:04 | 23.59757 | 58.37976 | 2962 ft | 256 kts | 144° |
| 2026-05-05 15:04 | 23.58094 | 58.38722 | 3612 ft | 264 kts | 171° |
| 2026-05-05 15:04 | 23.56259 | 58.38580 | 4474 ft | 268 kts | 197° |
| 2026-05-05 15:05 | 23.53554 | 58.35883 | 6144 ft | 276 kts | 236° |
| 2026-05-05 15:05 | 23.52532 | 58.34098 | 6970 ft | 277 kts | 237° |
| 2026-05-05 15:05 | 23.51515 | 58.32307 | 7786 ft | 280 kts | 236° |
| 2026-05-05 15:06 | 23.50477 | 58.30499 | 8594 ft | 283 kts | 236° |
| 2026-05-05 15:06 | 23.49420 | 58.28679 | 9425 ft | 286 kts | 236° |
| 2026-05-05 15:06 | 23.48348 | 58.26849 | 10167 ft | 290 kts | 236° |
| 2026-05-05 15:06 | 23.47217 | 58.24926 | 10510 ft | 312 kts | 237° |
| 2026-05-05 15:07 | 23.46019 | 58.22890 | 10723 ft | 335 kts | 237° |
| 2026-05-05 15:07 | 23.44739 | 58.20712 | 11176 ft | 346 kts | 237° |
| 2026-05-05 15:07 | 23.43426 | 58.18481 | 11834 ft | 352 kts | 237° |
| 2026-05-05 15:07 | 23.42098 | 58.16227 | 12509 ft | 358 kts | 238° |
| 2026-05-05 15:08 | 23.40696 | 58.13951 | 13174 ft | 365 kts | 233° |
| 2026-05-05 15:08 | 23.38971 | 58.11906 | 13850 ft | 370 kts | 223° |
| 2026-05-05 15:08 | 23.36914 | 58.10194 | 14518 ft | 375 kts | 214° |
| 2026-05-05 15:08 | 23.34714 | 58.08656 | 15144 ft | 378 kts | 214° |
| 2026-05-05 15:09 | 23.32492 | 58.07086 | 15786 ft | 382 kts | 214° |
| 2026-05-05 15:09 | 23.30280 | 58.05517 | 16406 ft | 386 kts | 214° |
| 2026-05-05 15:09 | 23.28030 | 58.03920 | 17037 ft | 389 kts | 214° |
| 2026-05-05 15:09 | 23.25752 | 58.02302 | 17671 ft | 393 kts | 214° |
| 2026-05-05 15:10 | 23.23450 | 58.00668 | 18288 ft | 396 kts | 214° |
| 2026-05-05 15:10 | 23.21144 | 57.99032 | 18857 ft | 398 kts | 215° |
| 2026-05-05 15:10 | 23.18824 | 57.97385 | 19466 ft | 399 kts | 215° |
| 2026-05-05 15:10 | 23.16522 | 57.95751 | 20032 ft | 401 kts | 215° |
| 2026-05-05 15:11 | 23.14176 | 57.94086 | 20597 ft | 403 kts | 215° |
| 2026-05-05 15:11 | 23.11822 | 57.92417 | 21132 ft | 406 kts | 215° |
| 2026-05-05 15:11 | 23.09457 | 57.90742 | 21658 ft | 409 kts | 215° |
| 2026-05-05 15:11 | 23.07061 | 57.89045 | 22179 ft | 411 kts | 215° |
| 2026-05-05 15:12 | 23.04666 | 57.87349 | 22688 ft | 414 kts | 215° |
| 2026-05-05 15:12 | 23.02244 | 57.85634 | 23167 ft | 417 kts | 215° |
| 2026-05-05 15:12 | 22.99800 | 57.83906 | 23627 ft | 420 kts | 215° |
| 2026-05-05 15:12 | 22.97350 | 57.82180 | 24039 ft | 422 kts | 215° |
| 2026-05-05 15:13 | 22.94907 | 57.80461 | 24460 ft | 424 kts | 215° |
| 2026-05-05 15:13 | 22.92424 | 57.78714 | 24863 ft | 426 kts | 215° |
| 2026-05-05 15:13 | 22.89927 | 57.76960 | 25264 ft | 429 kts | 214° |
| 2026-05-05 15:13 | 22.87312 | 57.75377 | 25610 ft | 434 kts | 207° |
| 2026-05-05 15:14 | 22.84581 | 57.73974 | 25882 ft | 436 kts | 207° |
| 2026-05-05 15:14 | 22.81837 | 57.72559 | 25966 ft | 436 kts | 207° |
| 2026-05-05 15:14 | 22.79104 | 57.71145 | 26055 ft | 436 kts | 207° |
| 2026-05-05 15:14 | 22.76365 | 57.69725 | 26117 ft | 437 kts | 207° |
| 2026-05-05 15:15 | 22.73614 | 57.68300 | 26111 ft | 437 kts | 207° |
| 2026-05-05 15:15 | 22.70913 | 57.66901 | 26104 ft | 437 kts | 207° |
| 2026-05-05 15:15 | 22.68171 | 57.65481 | 26100 ft | 437 kts | 207° |
| 2026-05-05 15:15 | 22.65424 | 57.64060 | 26099 ft | 437 kts | 207° |
| 2026-05-05 15:16 | 22.62756 | 57.62681 | 25998 ft | 434 kts | 207° |
| 2026-05-05 15:16 | 22.60039 | 57.61276 | 25868 ft | 433 kts | 207° |
| 2026-05-05 15:16 | 22.57308 | 57.59865 | 25810 ft | 436 kts | 207° |
| 2026-05-05 15:16 | 22.54565 | 57.58448 | 25807 ft | 436 kts | 207° |
| 2026-05-05 15:17 | 22.51834 | 57.57038 | 25806 ft | 435 kts | 207° |
| 2026-05-05 15:17 | 22.49141 | 57.55648 | 25804 ft | 436 kts | 207° |
| 2026-05-05 15:17 | 22.46403 | 57.54236 | 25803 ft | 436 kts | 207° |
| 2026-05-05 15:17 | 22.43663 | 57.52824 | 25804 ft | 436 kts | 207° |
| 2026-05-05 15:18 | 22.40927 | 57.51414 | 25800 ft | 436 kts | 207° |
| 2026-05-05 15:18 | 22.38197 | 57.50008 | 25802 ft | 436 kts | 207° |
| 2026-05-05 15:18 | 22.35462 | 57.48600 | 25801 ft | 436 kts | 207° |
| 2026-05-05 15:18 | 22.32784 | 57.47222 | 25801 ft | 436 kts | 207° |
| 2026-05-05 15:19 | 22.30013 | 57.45796 | 25803 ft | 436 kts | 207° |
| 2026-05-05 15:19 | 22.27276 | 57.44388 | 25802 ft | 436 kts | 207° |
| 2026-05-05 15:19 | 22.24540 | 57.42981 | 25796 ft | 436 kts | 207° |
| 2026-05-05 15:19 | 22.21809 | 57.41577 | 25799 ft | 436 kts | 207° |
| 2026-05-05 15:20 | 22.19066 | 57.40168 | 25801 ft | 436 kts | 207° |
| 2026-05-05 15:20 | 22.16323 | 57.38759 | 25797 ft | 436 kts | 207° |
| 2026-05-05 15:20 | 22.13600 | 57.37361 | 25796 ft | 436 kts | 207° |
| 2026-05-05 15:20 | 22.10849 | 57.35950 | 25795 ft | 436 kts | 207° |
| 2026-05-05 15:21 | 22.08122 | 57.34551 | 25794 ft | 436 kts | 207° |
| 2026-05-05 15:21 | 22.05410 | 57.33161 | 25789 ft | 436 kts | 207° |
| 2026-05-05 15:21 | 22.02671 | 57.31757 | 25791 ft | 436 kts | 207° |
| 2026-05-05 15:21 | 21.99941 | 57.30358 | 25784 ft | 436 kts | 207° |
| 2026-05-05 15:22 | 21.97198 | 57.28954 | 25786 ft | 436 kts | 207° |
| 2026-05-05 15:22 | 21.94458 | 57.27552 | 25783 ft | 436 kts | 207° |
| 2026-05-05 15:22 | 21.91719 | 57.26151 | 25783 ft | 436 kts | 207° |
| 2026-05-05 15:22 | 21.88983 | 57.24752 | 25781 ft | 436 kts | 207° |
| 2026-05-05 15:23 | 21.86243 | 57.23352 | 25781 ft | 436 kts | 207° |
| 2026-05-05 15:23 | 21.83503 | 57.21952 | 25779 ft | 436 kts | 207° |
| 2026-05-05 15:23 | 21.80795 | 57.20569 | 25780 ft | 436 kts | 207° |
| 2026-05-05 15:23 | 21.78055 | 57.19170 | 25776 ft | 436 kts | 207° |
| 2026-05-05 15:24 | 21.75317 | 57.17774 | 25774 ft | 436 kts | 207° |
| 2026-05-05 15:24 | 21.72572 | 57.16374 | 25775 ft | 436 kts | 207° |
| 2026-05-05 15:24 | 21.69833 | 57.14979 | 25773 ft | 436 kts | 207° |
| 2026-05-05 15:24 | 21.67090 | 57.13585 | 25773 ft | 436 kts | 207° |
| 2026-05-05 15:25 | 21.64349 | 57.12193 | 25770 ft | 436 kts | 207° |
| 2026-05-05 15:25 | 21.61645 | 57.10821 | 25769 ft | 436 kts | 207° |
| 2026-05-05 15:25 | 21.58881 | 57.09416 | 25769 ft | 435 kts | 207° |
| 2026-05-05 15:25 | 21.56168 | 57.08034 | 25769 ft | 435 kts | 207° |
| 2026-05-05 15:26 | 21.53437 | 57.06644 | 25767 ft | 435 kts | 207° |
| 2026-05-05 15:26 | 21.50699 | 57.05251 | 25766 ft | 435 kts | 207° |
| 2026-05-05 15:26 | 21.47966 | 57.03861 | 25762 ft | 435 kts | 207° |
| 2026-05-05 15:26 | 21.45220 | 57.02466 | 25762 ft | 435 kts | 207° |
| 2026-05-05 15:27 | 21.42487 | 57.01077 | 25763 ft | 435 kts | 207° |
| 2026-05-05 15:27 | 21.39753 | 56.99689 | 25761 ft | 435 kts | 207° |
| 2026-05-05 15:27 | 21.37011 | 56.98298 | 25760 ft | 435 kts | 207° |
| 2026-05-05 15:27 | 21.34312 | 56.96928 | 25759 ft | 435 kts | 207° |
| 2026-05-05 15:28 | 21.31572 | 56.95539 | 25760 ft | 435 kts | 207° |
| 2026-05-05 15:28 | 21.28837 | 56.94153 | 25758 ft | 435 kts | 207° |
| 2026-05-05 15:28 | 21.26105 | 56.92769 | 25757 ft | 435 kts | 207° |
| 2026-05-05 15:28 | 21.23368 | 56.91384 | 25756 ft | 435 kts | 207° |
| 2026-05-05 15:29 | 21.20627 | 56.89998 | 25757 ft | 435 kts | 207° |
| 2026-05-05 15:29 | 21.17890 | 56.88614 | 25757 ft | 435 kts | 207° |
| 2026-05-05 15:29 | 21.15157 | 56.87233 | 25754 ft | 435 kts | 207° |
| 2026-05-05 15:29 | 21.12419 | 56.85849 | 25753 ft | 435 kts | 207° |
| 2026-05-05 15:30 | 21.09720 | 56.84486 | 25754 ft | 435 kts | 207° |
| 2026-05-05 15:30 | 21.06987 | 56.83107 | 25754 ft | 435 kts | 207° |
| 2026-05-05 15:30 | 21.04246 | 56.81723 | 25756 ft | 435 kts | 207° |
| 2026-05-05 15:30 | 21.01515 | 56.80346 | 25752 ft | 435 kts | 207° |
| 2026-05-05 15:31 | 20.98779 | 56.78966 | 25752 ft | 435 kts | 207° |
| 2026-05-05 15:31 | 20.96035 | 56.77583 | 25753 ft | 434 kts | 207° |
| 2026-05-05 15:31 | 20.93309 | 56.76210 | 25753 ft | 434 kts | 207° |
| 2026-05-05 15:31 | 20.90612 | 56.74852 | 25750 ft | 434 kts | 207° |
| 2026-05-05 15:32 | 20.87877 | 56.73476 | 25749 ft | 434 kts | 207° |
| 2026-05-05 15:32 | 20.85147 | 56.72105 | 25748 ft | 434 kts | 207° |
| 2026-05-05 15:32 | 20.82417 | 56.70734 | 25747 ft | 434 kts | 207° |
| 2026-05-05 15:32 | 20.79690 | 56.69365 | 25747 ft | 434 kts | 207° |
| 2026-05-05 15:33 | 20.76954 | 56.67992 | 25747 ft | 434 kts | 207° |
| 2026-05-05 15:33 | 20.74221 | 56.66621 | 25744 ft | 434 kts | 207° |
| 2026-05-05 15:33 | 20.71495 | 56.65255 | 25743 ft | 433 kts | 207° |
| 2026-05-05 15:33 | 20.68802 | 56.63905 | 25744 ft | 434 kts | 207° |
| 2026-05-05 15:34 | 20.66030 | 56.62516 | 25748 ft | 434 kts | 207° |
| 2026-05-05 15:34 | 20.63335 | 56.61166 | 25745 ft | 434 kts | 207° |
| 2026-05-05 15:34 | 20.60566 | 56.59780 | 25747 ft | 433 kts | 207° |
| 2026-05-05 15:34 | 20.57880 | 56.58436 | 25746 ft | 434 kts | 207° |
| 2026-05-05 15:35 | 20.55148 | 56.57069 | 25745 ft | 433 kts | 207° |
| 2026-05-05 15:35 | 20.52412 | 56.55701 | 25743 ft | 433 kts | 207° |
| 2026-05-05 15:35 | 20.49692 | 56.54342 | 25744 ft | 433 kts | 207° |
| 2026-05-05 15:35 | 20.46967 | 56.52980 | 25745 ft | 433 kts | 207° |
| 2026-05-05 15:36 | 20.44233 | 56.51615 | 25740 ft | 433 kts | 207° |
| 2026-05-05 15:36 | 20.41528 | 56.50264 | 25743 ft | 433 kts | 207° |
| 2026-05-05 15:36 | 20.38797 | 56.48901 | 25737 ft | 433 kts | 207° |
| 2026-05-05 15:36 | 20.36067 | 56.47538 | 25739 ft | 433 kts | 207° |
| 2026-05-05 15:37 | 20.33348 | 56.46180 | 25736 ft | 433 kts | 207° |
| 2026-05-05 15:37 | 20.30606 | 56.44809 | 25739 ft | 433 kts | 207° |
| 2026-05-05 15:37 | 20.27887 | 56.43451 | 25739 ft | 433 kts | 207° |
| 2026-05-05 15:37 | 20.25148 | 56.42083 | 25736 ft | 433 kts | 207° |
| 2026-05-05 15:38 | 20.22462 | 56.40743 | 25739 ft | 433 kts | 207° |
| 2026-05-05 15:38 | 20.19723 | 56.39377 | 25739 ft | 433 kts | 206° |
| 2026-05-05 15:38 | 20.17002 | 56.38020 | 25739 ft | 433 kts | 206° |
| 2026-05-05 15:38 | 20.14275 | 56.36661 | 25740 ft | 433 kts | 206° |
| 2026-05-05 15:39 | 20.11541 | 56.35299 | 25739 ft | 433 kts | 206° |
| 2026-05-05 15:39 | 20.08819 | 56.33944 | 25739 ft | 433 kts | 206° |
| 2026-05-05 15:39 | 20.06090 | 56.32585 | 25737 ft | 433 kts | 206° |
| 2026-05-05 15:39 | 20.03369 | 56.31231 | 25738 ft | 433 kts | 206° |
| 2026-05-05 15:40 | 20.00636 | 56.29871 | 25738 ft | 433 kts | 206° |
| 2026-05-05 15:40 | 19.97948 | 56.28535 | 25739 ft | 433 kts | 207° |
| 2026-05-05 15:40 | 19.95295 | 56.27032 | 25740 ft | 432 kts | 211° |
| 2026-05-05 15:40 | 19.92707 | 56.25441 | 25740 ft | 432 kts | 211° |
| 2026-05-05 15:41 | 19.90095 | 56.23843 | 25742 ft | 432 kts | 211° |
| 2026-05-05 15:41 | 19.87493 | 56.22253 | 25739 ft | 432 kts | 211° |
| 2026-05-05 15:41 | 19.84888 | 56.20665 | 25737 ft | 432 kts | 211° |
| 2026-05-05 15:41 | 19.82282 | 56.19076 | 25738 ft | 432 kts | 211° |
| 2026-05-05 15:42 | 19.79681 | 56.17490 | 25739 ft | 432 kts | 211° |
| 2026-05-05 15:42 | 19.77068 | 56.15898 | 25753 ft | 432 kts | 211° |
| 2026-05-05 15:42 | 19.74496 | 56.14332 | 25741 ft | 432 kts | 211° |
| 2026-05-05 15:42 | 19.71902 | 56.12752 | 25740 ft | 432 kts | 211° |
| 2026-05-05 15:43 | 19.69286 | 56.11160 | 25742 ft | 432 kts | 211° |
| 2026-05-05 15:43 | 19.66684 | 56.09576 | 25755 ft | 431 kts | 211° |
| 2026-05-05 15:43 | 19.64094 | 56.08001 | 25754 ft | 431 kts | 211° |
| 2026-05-05 15:43 | 19.61483 | 56.06413 | 25743 ft | 431 kts | 211° |
| 2026-05-05 15:44 | 19.58873 | 56.04827 | 25741 ft | 432 kts | 211° |
| 2026-05-05 15:44 | 19.56263 | 56.03241 | 25742 ft | 431 kts | 211° |
| 2026-05-05 15:44 | 19.53697 | 56.01683 | 25759 ft | 431 kts | 211° |
| 2026-05-05 15:44 | 19.51096 | 56.00104 | 25760 ft | 431 kts | 211° |
| 2026-05-05 15:45 | 19.48491 | 55.98522 | 25739 ft | 432 kts | 211° |
| 2026-05-05 15:45 | 19.45885 | 55.96940 | 25745 ft | 432 kts | 211° |
| 2026-05-05 15:45 | 19.43267 | 55.95351 | 25747 ft | 432 kts | 211° |
| 2026-05-05 15:45 | 19.40665 | 55.93773 | 25758 ft | 432 kts | 211° |
| 2026-05-05 15:46 | 19.38070 | 55.92199 | 25760 ft | 431 kts | 211° |
| 2026-05-05 15:46 | 19.35455 | 55.90614 | 25749 ft | 432 kts | 211° |
| 2026-05-05 15:46 | 19.32881 | 55.89054 | 25742 ft | 432 kts | 211° |
| 2026-05-05 15:46 | 19.30280 | 55.87479 | 25744 ft | 431 kts | 211° |
| 2026-05-05 15:47 | 19.27665 | 55.85896 | 25743 ft | 431 kts | 211° |
| 2026-05-05 15:47 | 19.25941 | 55.84852 | 25747 ft | 431 kts | 211° |
| 2026-05-05 15:47 | 19.22456 | 55.82744 | 25760 ft | 432 kts | 211° |
| 2026-05-05 15:47 | 19.19851 | 55.81168 | 25763 ft | 432 kts | 211° |
| 2026-05-05 15:48 | 19.17245 | 55.79593 | 25761 ft | 432 kts | 211° |
| 2026-05-05 15:48 | 19.14665 | 55.78033 | 25762 ft | 432 kts | 211° |
| 2026-05-05 15:48 | 19.12069 | 55.76464 | 25749 ft | 432 kts | 211° |
| 2026-05-05 15:48 | 19.09454 | 55.74885 | 25765 ft | 432 kts | 211° |
| 2026-05-05 15:49 | 19.06850 | 55.73313 | 25760 ft | 432 kts | 211° |
| 2026-05-05 15:49 | 19.04242 | 55.71740 | 25752 ft | 431 kts | 211° |
| 2026-05-05 15:49 | 19.01636 | 55.70168 | 25753 ft | 432 kts | 211° |
| 2026-05-05 15:49 | 18.99023 | 55.68593 | 25767 ft | 432 kts | 211° |
| 2026-05-05 15:50 | 18.96413 | 55.67020 | 25750 ft | 432 kts | 211° |
| 2026-05-05 15:50 | 18.93831 | 55.65465 | 25755 ft | 432 kts | 211° |
| 2026-05-05 15:50 | 18.91233 | 55.63900 | 25763 ft | 432 kts | 211° |
| 2026-05-05 15:50 | 18.88595 | 55.62312 | 25751 ft | 432 kts | 211° |
| 2026-05-05 15:51 | 18.85988 | 55.60743 | 25761 ft | 432 kts | 211° |
| 2026-05-05 15:51 | 18.83385 | 55.59177 | 25759 ft | 432 kts | 211° |
| 2026-05-05 15:51 | 18.80794 | 55.57619 | 25761 ft | 432 kts | 211° |
| 2026-05-05 15:51 | 18.78193 | 55.56055 | 25762 ft | 432 kts | 211° |
| 2026-05-05 15:52 | 18.75565 | 55.54477 | 25753 ft | 432 kts | 211° |
| 2026-05-05 15:52 | 18.72963 | 55.52913 | 25765 ft | 432 kts | 211° |
| 2026-05-05 15:52 | 18.70351 | 55.51345 | 25764 ft | 432 kts | 211° |
| 2026-05-05 15:52 | 18.67734 | 55.49774 | 25765 ft | 432 kts | 211° |
| 2026-05-05 15:53 | 18.65119 | 55.48205 | 25764 ft | 432 kts | 211° |
| 2026-05-05 15:53 | 18.62505 | 55.46638 | 25769 ft | 432 kts | 211° |
| 2026-05-05 15:53 | 18.59894 | 55.45072 | 25775 ft | 431 kts | 211° |
| 2026-05-05 15:53 | 18.57327 | 55.43533 | 25766 ft | 431 kts | 211° |
| 2026-05-05 15:54 | 18.54714 | 55.41967 | 25773 ft | 431 kts | 211° |
| 2026-05-05 15:54 | 18.52113 | 55.40409 | 25775 ft | 431 kts | 211° |
| 2026-05-05 15:54 | 18.49494 | 55.38841 | 25762 ft | 432 kts | 211° |
| 2026-05-05 15:54 | 18.46890 | 55.37282 | 25777 ft | 432 kts | 211° |
| 2026-05-05 15:55 | 18.44282 | 55.35722 | 25761 ft | 432 kts | 211° |
| 2026-05-05 15:55 | 18.41689 | 55.34171 | 25777 ft | 432 kts | 211° |
| 2026-05-05 15:55 | 18.39071 | 55.32605 | 25772 ft | 432 kts | 211° |
| 2026-05-05 15:55 | 18.36455 | 55.31042 | 25772 ft | 432 kts | 211° |
| 2026-05-05 15:56 | 18.33861 | 55.29492 | 25777 ft | 432 kts | 211° |
| 2026-05-05 15:56 | 18.31244 | 55.27930 | 25775 ft | 432 kts | 211° |
| 2026-05-05 15:56 | 18.28628 | 55.26369 | 25771 ft | 432 kts | 211° |
| 2026-05-05 15:56 | 18.26012 | 55.24809 | 25776 ft | 432 kts | 210° |
| 2026-05-05 15:57 | 18.23396 | 55.23248 | 25781 ft | 432 kts | 210° |
| 2026-05-05 15:57 | 18.20799 | 55.21700 | 25779 ft | 432 kts | 210° |
| 2026-05-05 15:57 | 18.18190 | 55.20145 | 25779 ft | 432 kts | 211° |
| 2026-05-05 15:57 | 18.15572 | 55.18585 | 25769 ft | 433 kts | 210° |
| 2026-05-05 15:58 | 18.12879 | 55.17159 | 25777 ft | 433 kts | 204° |
| 2026-05-05 15:58 | 18.10108 | 55.15926 | 25621 ft | 434 kts | 204° |
| 2026-05-05 15:58 | 18.07325 | 55.14681 | 25134 ft | 435 kts | 204° |
| 2026-05-05 15:58 | 18.04533 | 55.13426 | 24312 ft | 440 kts | 204° |
| 2026-05-05 15:59 | 18.01733 | 55.12167 | 23463 ft | 445 kts | 204° |
| 2026-05-05 15:59 | 17.98902 | 55.10894 | 22854 ft | 439 kts | 203° |
| 2026-05-05 15:59 | 17.96122 | 55.09646 | 22259 ft | 433 kts | 203° |
| 2026-05-05 15:59 | 17.93360 | 55.08406 | 21672 ft | 427 kts | 203° |
| 2026-05-05 16:00 | 17.90650 | 55.07191 | 21089 ft | 422 kts | 203° |
| 2026-05-05 16:00 | 17.87974 | 55.05990 | 20508 ft | 418 kts | 203° |
| 2026-05-05 16:00 | 17.85321 | 55.04799 | 19937 ft | 415 kts | 202° |
| 2026-05-05 16:00 | 17.82677 | 55.03613 | 19325 ft | 412 kts | 202° |
| 2026-05-05 16:01 | 17.80047 | 55.02434 | 18749 ft | 410 kts | 202° |
| 2026-05-05 16:01 | 17.77430 | 55.01262 | 18167 ft | 407 kts | 202° |
| 2026-05-05 16:01 | 17.74835 | 55.00101 | 17613 ft | 403 kts | 202° |
| 2026-05-05 16:01 | 17.72301 | 54.98966 | 17052 ft | 399 kts | 202° |
| 2026-05-05 16:02 | 17.69762 | 54.97830 | 16490 ft | 395 kts | 202° |
| 2026-05-05 16:02 | 17.67249 | 54.96706 | 15935 ft | 392 kts | 202° |
| 2026-05-05 16:02 | 17.64770 | 54.95598 | 15337 ft | 391 kts | 202° |
| 2026-05-05 16:02 | 17.62252 | 54.94472 | 14817 ft | 387 kts | 202° |
| 2026-05-05 16:03 | 17.59779 | 54.93366 | 14269 ft | 385 kts | 202° |
| 2026-05-05 16:03 | 17.57315 | 54.92266 | 13716 ft | 384 kts | 202° |
| 2026-05-05 16:03 | 17.54889 | 54.91182 | 13443 ft | 374 kts | 202° |
| 2026-05-05 16:03 | 17.52505 | 54.90119 | 13277 ft | 375 kts | 202° |
| 2026-05-05 16:04 | 17.50099 | 54.89048 | 12969 ft | 376 kts | 202° |
| 2026-05-05 16:04 | 17.48515 | 54.88342 | 12754 ft | 374 kts | 202° |
| 2026-05-05 16:04 | 17.46125 | 54.87276 | 12431 ft | 370 kts | 202° |
| 2026-05-05 16:04 | 17.43000 | 54.85882 | 12017 ft | 369 kts | 203° |
| 2026-05-05 16:05 | 17.40750 | 54.84880 | 11708 ft | 367 kts | 203° |
| 2026-05-05 16:05 | 17.38360 | 54.83815 | 11557 ft | 357 kts | 203° |
| 2026-05-05 16:05 | 17.36124 | 54.82819 | 11443 ft | 344 kts | 203° |
| 2026-05-05 16:05 | 17.33957 | 54.81854 | 11328 ft | 331 kts | 203° |
| 2026-05-05 16:06 | 17.31881 | 54.80928 | 11136 ft | 321 kts | 203° |
| 2026-05-05 16:06 | 17.29823 | 54.80012 | 10714 ft | 321 kts | 204° |
| 2026-05-05 16:06 | 17.27868 | 54.78940 | 10337 ft | 316 kts | 220° |
| 2026-05-05 16:06 | 17.26471 | 54.77281 | 9942 ft | 311 kts | 243° |
| 2026-05-05 16:07 | 17.25668 | 54.75207 | 9534 ft | 306 kts | 254° |
| 2026-05-05 16:07 | 17.25026 | 54.73065 | 9120 ft | 303 kts | 255° |
| 2026-05-05 16:07 | 17.24421 | 54.70992 | 8908 ft | 296 kts | 255° |
| 2026-05-05 16:07 | 17.23794 | 54.68922 | 8642 ft | 300 kts | 254° |
| 2026-05-05 16:08 | 17.23148 | 54.66851 | 8360 ft | 298 kts | 254° |
| 2026-05-05 16:08 | 17.22504 | 54.64833 | 8130 ft | 297 kts | 253° |
| 2026-05-05 16:08 | 17.21843 | 54.62780 | 7881 ft | 296 kts | 253° |
| 2026-05-05 16:08 | 17.21190 | 54.60766 | 7616 ft | 294 kts | 253° |
| 2026-05-05 16:09 | 17.20530 | 54.58732 | 7364 ft | 293 kts | 253° |
| 2026-05-05 16:09 | 17.19879 | 54.56728 | 7291 ft | 292 kts | 253° |
| 2026-05-05 16:09 | 17.19228 | 54.54715 | 7163 ft | 292 kts | 253° |
| 2026-05-05 16:09 | 17.18574 | 54.52687 | 6770 ft | 294 kts | 253° |
| 2026-05-05 16:10 | 17.17918 | 54.50652 | 6394 ft | 294 kts | 253° |
| 2026-05-05 16:10 | 17.17268 | 54.48635 | 6008 ft | 293 kts | 253° |
| 2026-05-05 16:10 | 17.16624 | 54.46641 | 5659 ft | 291 kts | 253° |
| 2026-05-05 16:10 | 17.15982 | 54.44660 | 5249 ft | 288 kts | 252° |
| 2026-05-05 16:11 | 17.15349 | 54.42700 | 4921 ft | 277 kts | 252° |
| 2026-05-05 16:11 | 17.13506 | 54.37049 | 4571 ft | 253 kts | 252° |
| 2026-05-05 16:12 | 17.12919 | 54.35380 | 4514 ft | 234 kts | 250° |
| 2026-05-05 16:12 | 17.11838 | 54.32173 | 4151 ft | 235 kts | 251° |
| 2026-05-05 16:13 | 17.10274 | 54.27481 | 3294 ft | 225 kts | 250° |
| 2026-05-05 16:13 | 17.09764 | 54.25951 | 3014 ft | 219 kts | 250° |
| 2026-05-05 16:13 | 17.09272 | 54.24475 | 2731 ft | 211 kts | 250° |
| 2026-05-05 16:14 | 17.08342 | 54.21682 | 2264 ft | 193 kts | 250° |
| 2026-05-05 16:14 | 17.07504 | 54.19174 | 1767 ft | 174 kts | 250° |
| 2026-05-05 16:15 | 17.06753 | 54.16916 | 1377 ft | 151 kts | 249° |
| 2026-05-05 16:15 | 17.06098 | 54.14959 | 1030 ft | 143 kts | 248° |
| 2026-05-05 16:16 | 17.05444 | 54.12994 | 648 ft | 142 kts | 249° |
| 2026-05-05 16:16 | 17.04803 | 54.11038 | 238 ft | 141 kts | 249° |
| 2026-05-05 16:17 | 17.04211 | 54.09284 | 93 ft | 95 kts | 250° |
| 2026-05-05 16:17 | 17.04056 | 54.08816 | 92 ft | 48 kts | 251° |
| 2026-05-05 16:18 | 17.04031 | 54.08405 | 87 ft | 15 kts | 282° |
| 2026-05-05 16:18 | 17.04095 | 54.08355 | 89 ft | 11 kts | 6° |
| 2026-05-05 16:18 | 17.04183 | 54.08492 | 92 ft | 14 kts | 71° |
| 2026-05-05 16:19 | 17.04218 | 54.08600 | 90 ft | 17 kts | 71° |
| 2026-05-05 16:19 | 17.04278 | 54.08665 | 91 ft | 11 kts | 5° |
| 2026-05-05 16:19 | 17.04373 | 54.08783 | 91 ft | 12 kts | 72° |
| 2026-05-05 16:20 | 17.04456 | 54.08772 | 91 ft | 7 kts | 340° |
| 2026-05-05 16:20 | 17.04461 | 54.08770 | 92 ft | 0 kts | 340° |